Time,TemperatureF,DewpointF,PressureIn,WindDirection,WindDirectionDegrees,WindSpeedMPH,WindSpeedGustMPH,Humidity,HourlyPrecipIn,Conditions,Clouds,dailyrainin,SolarRadiationWatts/m^2,SoftwareType,DateUTC
2014-02-19 00:01:00,47.0,44.0,-100.00,West,270,15.0,19.0,90,0.00,,,0.00,0.000000,,2014-02-19 08:01:00,
2014-02-19 00:11:00,47.0,44.0,-100.00,West,270,15.0,19.0,90,0.00,,,0.00,0.000000,,2014-02-19 08:11:00,
2014-02-19 00:21:00,47.0,44.0,-100.00,West,270,15.0,19.0,90,0.00,,,0.00,0.000000,,2014-02-19 08:21:00,
2014-02-19 00:52:00,46.0,45.0,-100.00,WNW,294,15.0,21.0,95,0.00,,,0.00,0.000000,,2014-02-19 08:52:00,
2014-02-19 01:01:00,46.0,45.0,-100.00,WNW,294,15.0,21.0,95,0.00,,,0.00,0.000000,,2014-02-19 09:01:00,
2014-02-19 01:11:00,46.0,45.0,-100.00,WNW,294,15.0,21.0,95,0.00,,,0.00,0.000000,,2014-02-19 09:11:00,
2014-02-19 01:21:00,46.0,45.0,-100.00,WNW,294,15.0,21.0,95,0.00,,,0.00,0.000000,,2014-02-19 09:21:00,
2014-02-19 01:53:00,47.0,47.0,-100.00,WNW,282,16.0,23.0,100,0.00,,,0.00,0.000000,,2014-02-19 09:53:00,
2014-02-19 02:03:00,47.0,47.0,-100.00,WNW,282,16.0,23.0,100,0.00,,,0.00,0.000000,,2014-02-19 10:03:00,
2014-02-19 02:12:00,47.0,47.0,-100.00,WNW,282,16.0,23.0,100,0.00,,,0.00,0.000000,,2014-02-19 10:12:00,
2014-02-19 02:23:00,47.0,47.0,-100.00,WNW,282,16.0,23.0,100,0.00,,,0.00,0.000000,,2014-02-19 10:23:00,
2014-02-19 02:53:00,48.0,48.0,-100.00,West,279,13.0,22.0,100,0.00,,,0.00,0.000000,,2014-02-19 10:53:00,
2014-02-19 03:02:00,48.0,48.0,-100.00,West,279,13.0,22.0,100,0.00,,,0.00,0.000000,,2014-02-19 11:02:00,
2014-02-19 03:12:00,48.0,48.0,-100.00,West,279,13.0,22.0,100,0.00,,,0.00,0.000000,,2014-02-19 11:12:00,
2014-02-19 03:22:00,48.0,48.0,-100.00,West,279,13.0,22.0,100,0.00,,,0.00,0.000000,,2014-02-19 11:22:00,
2014-02-19 03:52:00,48.0,48.0,-100.00,WSW,258,11.0,15.0,100,0.00,,,0.00,0.000000,,2014-02-19 11:52:00,
2014-02-19 04:02:00,48.0,48.0,-100.00,WSW,258,11.0,15.0,100,0.00,,,0.00,0.000000,,2014-02-19 12:02:00,
2014-02-19 04:12:00,48.0,48.0,-100.00,WSW,258,11.0,15.0,100,0.00,,,0.00,0.000000,,2014-02-19 12:12:00,
2014-02-19 04:21:00,48.0,48.0,-100.00,WSW,258,11.0,15.0,100,0.00,,,0.00,0.000000,,2014-02-19 12:21:00,
2014-02-19 04:52:00,49.0,49.0,-100.00,WSW,247,15.0,22.0,100,0.00,,,0.00,0.000000,,2014-02-19 12:52:00,
2014-02-19 05:01:00,49.0,49.0,-100.00,WSW,247,15.0,22.0,100,0.00,,,0.00,0.000000,,2014-02-19 13:01:00,
2014-02-19 05:12:00,49.0,49.0,-100.00,WSW,247,15.0,22.0,100,0.00,,,0.00,0.000000,,2014-02-19 13:12:00,
2014-02-19 05:22:00,49.0,49.0,-100.00,WSW,247,15.0,22.0,100,0.00,,,0.00,0.000000,,2014-02-19 13:22:00,
2014-02-19 05:52:00,48.0,48.0,-100.00,West,276,10.0,21.0,100,0.00,,,0.00,0.000000,,2014-02-19 13:52:00,
2014-02-19 06:01:00,48.0,48.0,-100.00,West,276,10.0,21.0,100,0.00,,,0.00,0.000000,,2014-02-19 14:01:00,
2014-02-19 06:12:00,48.0,48.0,-100.00,West,276,10.0,21.0,100,0.00,,,0.00,0.000000,,2014-02-19 14:12:00,
2014-02-19 06:22:00,48.0,48.0,-100.00,West,276,10.0,21.0,100,0.00,,,0.00,0.000000,,2014-02-19 14:22:00,
2014-02-19 06:53:00,47.0,47.0,-100.00,WSW,257,10.0,19.0,100,0.01,,,0.01,0.000000,,2014-02-19 14:53:00,
2014-02-19 07:02:00,47.0,47.0,-100.00,WSW,257,10.0,19.0,100,0.01,,,0.01,0.000000,,2014-02-19 15:02:00,
2014-02-19 07:11:00,47.0,47.0,-100.00,WSW,257,10.0,19.0,100,0.01,,,0.01,0.000000,,2014-02-19 15:11:00,
2014-02-19 07:21:00,47.0,47.0,-100.00,WSW,257,10.0,19.0,100,0.01,,,0.01,0.000000,,2014-02-19 15:21:00,
2014-02-19 07:54:00,47.0,47.0,-100.00,West,262,14.0,20.0,100,0.00,,,0.01,12.000000,,2014-02-19 15:54:00,
2014-02-19 08:13:00,47.0,47.0,-100.00,West,262,14.0,20.0,100,0.00,,,0.01,12.000000,,2014-02-19 16:13:00,
2014-02-19 08:23:00,47.0,47.0,-100.00,West,262,14.0,20.0,100,0.00,,,0.01,12.000000,,2014-02-19 16:23:00,
2014-02-19 08:53:00,47.0,47.0,-100.00,NW,307,8.0,17.0,100,0.00,,,0.01,111.000000,,2014-02-19 16:53:00,
2014-02-19 09:03:00,47.0,47.0,-100.00,NW,307,8.0,17.0,100,0.00,,,0.01,111.000000,,2014-02-19 17:03:00,
2014-02-19 09:12:00,47.0,47.0,-100.00,NW,307,8.0,17.0,100,0.00,,,0.01,111.000000,,2014-02-19 17:12:00,
2014-02-19 09:22:00,47.0,47.0,-100.00,NW,307,8.0,17.0,100,0.00,,,0.01,111.000000,,2014-02-19 17:22:00,
2014-02-19 09:52:00,50.0,47.0,-100.00,NNW,334,8.0,13.0,90,0.00,,,0.01,333.000000,,2014-02-19 17:52:00,
2014-02-19 10:02:00,50.0,47.0,-100.00,NNW,334,8.0,13.0,90,0.00,,,0.01,333.000000,,2014-02-19 18:02:00,
2014-02-19 10:12:00,50.0,47.0,-100.00,NNW,334,8.0,13.0,90,0.00,,,0.01,333.000000,,2014-02-19 18:12:00,
2014-02-19 10:22:00,50.0,47.0,-100.00,NNW,334,8.0,13.0,90,0.00,,,0.01,333.000000,,2014-02-19 18:22:00,
2014-02-19 10:53:00,53.0,46.0,-100.00,NE,42,9.0,13.0,78,0.00,,,0.01,469.000000,,2014-02-19 18:53:00,
2014-02-19 11:02:00,53.0,46.0,-100.00,NE,42,9.0,13.0,78,0.00,,,0.01,469.000000,,2014-02-19 19:02:00,
2014-02-19 11:12:00,53.0,46.0,-100.00,NE,42,9.0,13.0,78,0.00,,,0.01,469.000000,,2014-02-19 19:12:00,
2014-02-19 11:22:00,53.0,46.0,-100.00,NE,42,9.0,13.0,78,0.00,,,0.01,469.000000,,2014-02-19 19:22:00,
2014-02-19 11:52:00,53.0,39.0,-100.00,ENE,65,16.0,25.0,60,0.00,,,0.01,604.000000,,2014-02-19 19:52:00,
2014-02-19 12:02:00,53.0,39.0,-100.00,ENE,65,16.0,25.0,60,0.00,,,0.01,604.000000,,2014-02-19 20:02:00,
2014-02-19 12:11:00,53.0,39.0,-100.00,ENE,65,16.0,25.0,60,0.00,,,0.01,604.000000,,2014-02-19 20:11:00,
2014-02-19 12:21:00,53.0,39.0,-100.00,ENE,65,16.0,25.0,60,0.00,,,0.01,604.000000,,2014-02-19 20:21:00,
2014-02-19 12:52:00,54.0,36.0,-100.00,ENE,60,15.0,24.0,51,0.00,,,0.01,667.000000,,2014-02-19 20:52:00,
2014-02-19 13:02:00,54.0,36.0,-100.00,ENE,60,15.0,24.0,51,0.00,,,0.01,667.000000,,2014-02-19 21:02:00,
2014-02-19 13:11:00,54.0,36.0,-100.00,ENE,60,15.0,24.0,51,0.00,,,0.01,667.000000,,2014-02-19 21:11:00,
2014-02-19 13:22:00,54.0,36.0,-100.00,ENE,60,15.0,24.0,51,0.00,,,0.01,667.000000,,2014-02-19 21:22:00,
2014-02-19 13:53:00,56.0,40.0,-100.00,NE,53,8.0,15.0,55,0.00,,,0.01,660.000000,,2014-02-19 21:53:00,
2014-02-19 14:03:00,56.0,40.0,-100.00,NE,53,8.0,15.0,55,0.00,,,0.01,660.000000,,2014-02-19 22:03:00,
2014-02-19 14:12:00,56.0,40.0,-100.00,NE,53,8.0,15.0,55,0.00,,,0.01,660.000000,,2014-02-19 22:12:00,
2014-02-19 14:23:00,56.0,40.0,-100.00,NE,53,8.0,15.0,55,0.00,,,0.01,660.000000,,2014-02-19 22:23:00,
2014-02-19 14:53:00,57.0,41.0,-100.00,NE,55,6.0,14.0,55,0.00,,,0.01,593.000000,,2014-02-19 22:53:00,
2014-02-19 15:02:00,57.0,41.0,-100.00,NE,55,6.0,14.0,55,0.00,,,0.01,593.000000,,2014-02-19 23:02:00,
2014-02-19 15:11:00,57.0,41.0,-100.00,NE,55,6.0,14.0,55,0.00,,,0.01,593.000000,,2014-02-19 23:11:00,
2014-02-19 15:22:00,57.0,41.0,-100.00,NE,55,6.0,14.0,55,0.00,,,0.01,593.000000,,2014-02-19 23:22:00,
2014-02-19 15:53:00,57.0,41.0,-100.00,NNE,30,7.0,12.0,56,0.00,,,0.01,469.000000,,2014-02-19 23:53:00,
2014-02-19 16:02:00,57.0,41.0,-100.00,NNE,30,7.0,12.0,56,0.00,,,0.01,469.000000,,2014-02-20 00:02:00,
2014-02-19 16:12:00,57.0,41.0,-100.00,NNE,30,7.0,12.0,56,0.00,,,0.01,469.000000,,2014-02-20 00:12:00,
2014-02-19 16:21:00,57.0,41.0,-100.00,NNE,30,7.0,12.0,56,0.00,,,0.01,469.000000,,2014-02-20 00:21:00,
2014-02-19 16:52:00,57.0,39.0,-100.00,North,356,7.0,12.0,50,0.00,,,0.01,273.000000,,2014-02-20 00:52:00,
2014-02-19 17:02:00,57.0,39.0,-100.00,North,356,7.0,12.0,50,0.00,,,0.01,273.000000,,2014-02-20 01:02:00,
2014-02-19 17:12:00,57.0,39.0,-100.00,North,356,7.0,12.0,50,0.00,,,0.01,273.000000,,2014-02-20 01:12:00,
2014-02-19 17:21:00,57.0,39.0,-100.00,North,356,7.0,12.0,50,0.00,,,0.01,273.000000,,2014-02-20 01:21:00,
2014-02-19 17:52:00,54.0,37.0,-100.00,NNW,343,6.0,10.0,53,0.00,,,0.01,106.000000,,2014-02-20 01:52:00,
2014-02-19 18:02:00,54.0,37.0,-100.00,NNW,343,6.0,10.0,53,0.00,,,0.01,106.000000,,2014-02-20 02:02:00,
2014-02-19 18:12:00,54.0,37.0,-100.00,NNW,343,6.0,10.0,53,0.00,,,0.01,106.000000,,2014-02-20 02:12:00,
2014-02-19 18:22:00,54.0,37.0,-100.00,NNW,343,6.0,10.0,53,0.00,,,0.01,106.000000,,2014-02-20 02:22:00,
2014-02-19 19:11:00,49.0,39.0,-100.00,WNW,298,7.0,10.0,69,0.00,,,0.01,5.000000,,2014-02-20 03:11:00,
2014-02-19 19:21:00,49.0,39.0,-100.00,WNW,298,7.0,10.0,69,0.00,,,0.01,5.000000,,2014-02-20 03:21:00,
2014-02-19 19:53:00,51.0,43.0,-100.00,NW,323,10.0,15.0,73,0.00,,,0.01,0.000000,,2014-02-20 03:53:00,
2014-02-19 20:03:00,51.0,43.0,-100.00,NW,323,10.0,15.0,73,0.00,,,0.01,0.000000,,2014-02-20 04:03:00,
2014-02-19 20:13:00,51.0,43.0,-100.00,NW,323,10.0,15.0,73,0.00,,,0.01,0.000000,,2014-02-20 04:13:00,
2014-02-19 20:23:00,51.0,43.0,-100.00,NW,323,10.0,15.0,73,0.00,,,0.01,0.000000,,2014-02-20 04:23:00,
2014-02-19 20:53:00,49.0,38.0,-100.00,North,351,8.0,15.0,65,0.00,,,0.01,0.000000,,2014-02-20 04:53:00,
2014-02-19 21:02:00,49.0,38.0,-100.00,North,351,8.0,15.0,65,0.00,,,0.01,0.000000,,2014-02-20 05:02:00,
2014-02-19 21:12:00,49.0,38.0,-100.00,North,351,8.0,15.0,65,0.00,,,0.01,0.000000,,2014-02-20 05:12:00,
2014-02-19 21:22:00,49.0,38.0,-100.00,North,351,8.0,15.0,65,0.00,,,0.01,0.000000,,2014-02-20 05:22:00,
2014-02-19 21:53:00,49.0,37.0,-100.00,NW,321,6.0,12.0,63,0.00,,,0.01,0.000000,,2014-02-20 05:53:00,
2014-02-19 22:02:00,49.0,37.0,-100.00,NW,321,6.0,12.0,63,0.00,,,0.01,0.000000,,2014-02-20 06:02:00,
2014-02-19 22:12:00,49.0,37.0,-100.00,NW,321,6.0,12.0,63,0.00,,,0.01,0.000000,,2014-02-20 06:12:00,
2014-02-19 22:22:00,49.0,37.0,-100.00,NW,321,6.0,12.0,63,0.00,,,0.01,0.000000,,2014-02-20 06:22:00,
2014-02-19 22:53:00,48.0,39.0,-100.00,NNE,13,5.0,9.0,70,0.00,,,0.01,0.000000,,2014-02-20 06:53:00,
2014-02-19 23:02:00,48.0,39.0,-100.00,NNE,13,5.0,9.0,70,0.00,,,0.01,0.000000,,2014-02-20 07:02:00,
2014-02-19 23:11:00,48.0,39.0,-100.00,NNE,13,5.0,9.0,70,0.00,,,0.01,0.000000,,2014-02-20 07:11:00,
2014-02-19 23:21:00,48.0,39.0,-100.00,NNE,13,5.0,9.0,70,0.00,,,0.01,0.000000,,2014-02-20 07:21:00,
2014-02-19 23:52:00,48.0,40.0,-100.00,NNE,13,3.0,6.0,73,0.00,,,0.01,0.000000,,2014-02-20 07:52:00,